Time;durP1;ratioP1;P1;durP2;ratioP2;P2;SDS_P1;SDS_P2;PMS_P1;PMS_P2;Temp;Humidity;BMP_temperature;BMP_pressure;BME280_temperature;BME280_humidity;BME280_pressure;Samples;Min_cycle;Max_cycle;Signal;HPM_P1;HPM_P2
2023/05/29 00:00:20;;;;;;;16.55;7.13;;;17.90;96.50;;;;;;5021644;28;20128;-58
2023/05/29 00:02:47;;;;;;;16.60;6.95;;;17.90;96.70;;;;;;5022606;28;20152;-58
2023/05/29 00:05:14;;;;;;;17.55;7.82;;;17.80;97.00;;;;;;5027266;28;20037;-60
2023/05/29 00:07:41;;;;;;;19.55;6.82;;;17.80;97.10;;;;;;5026287;28;20052;-60
2023/05/29 00:10:08;;;;;;;14.63;7.90;;;17.70;97.10;;;;;;5023589;28;21239;-58
2023/05/29 00:12:34;;;;;;;13.23;7.53;;;17.70;97.10;;;;;;5023929;28;20703;-57
2023/05/29 00:15:00;;;;;;;15.27;8.43;;;17.70;97.40;;;;;;5023558;28;20522;-58
2023/05/29 00:17:26;;;;;;;12.18;7.35;;;17.70;97.50;;;;;;5023859;28;20048;-58
2023/05/29 00:19:52;;;;;;;14.45;6.72;;;17.60;97.50;;;;;;5026162;28;20045;-58
2023/05/29 00:22:17;;;;;;;14.10;6.88;;;17.70;97.50;;;;;;5025409;28;20132;-58
2023/05/29 00:24:43;;;;;;;18.13;8.82;;;17.60;97.60;;;;;;5023276;28;20494;-58
2023/05/29 00:27:10;;;;;;;21.23;7.75;;;17.60;97.70;;;;;;5025036;28;20091;-58
2023/05/29 00:29:37;;;;;;;14.88;7.55;;;17.60;97.70;;;;;;5025543;28;20119;-58
2023/05/29 00:32:04;;;;;;;13.50;5.30;;;17.50;97.70;;;;;;5023060;28;20076;-58
2023/05/29 00:34:31;;;;;;;12.23;7.20;;;17.50;97.80;;;;;;5022897;28;20068;-58
2023/05/29 00:36:57;;;;;;;13.90;5.90;;;17.40;97.80;;;;;;5024497;28;20084;-58
2023/05/29 00:39:22;;;;;;;14.38;6.32;;;17.40;97.90;;;;;;5026194;28;20049;-59
2023/05/29 00:41:50;;;;;;;14.20;6.13;;;17.40;98.00;;;;;;5021831;28;20068;-59
2023/05/29 00:44:18;;;;;;;15.13;6.72;;;17.40;98.00;;;;;;5025522;28;20046;-58
2023/05/29 00:46:44;;;;;;;20.42;6.88;;;17.30;98.10;;;;;;5025803;28;20113;-57
2023/05/29 00:49:11;;;;;;;12.82;6.68;;;17.30;98.30;;;;;;5022312;28;20099;-58
2023/05/29 00:51:38;;;;;;;16.45;6.45;;;17.30;98.30;;;;;;5024427;28;20045;-58
2023/05/29 00:54:06;;;;;;;18.25;6.88;;;17.20;98.30;;;;;;5024973;28;20076;-58
2023/05/29 00:56:36;;;;;;;16.20;6.97;;;17.20;98.40;;;;;;5024316;28;20049;-57
2023/05/29 00:59:03;;;;;;;8.73;4.85;;;17.20;98.40;;;;;;5022721;28;20793;-58
2023/05/29 01:01:31;;;;;;;15.27;7.68;;;17.10;98.50;;;;;;5023004;28;20042;-58
2023/05/29 01:03:57;;;;;;;15.20;8.18;;;17.10;98.70;;;;;;5023831;28;20088;-58
2023/05/29 01:06:23;;;;;;;17.70;7.57;;;17.10;99.20;;;;;;5024794;28;20052;-58
2023/05/29 01:08:49;;;;;;;15.73;6.43;;;17.10;98.90;;;;;;5022190;28;20053;-58
2023/05/29 01:11:27;;;;;;;15.18;6.53;;;17.00;98.90;;;;;;5024841;28;20638;-58
2023/05/29 01:13:56;;;;;;;22.27;6.05;;;17.00;99.00;;;;;;5022903;28;20056;-59
2023/05/29 01:16:34;;;;;;;13.68;7.10;;;17.00;99.00;;;;;;5021139;28;20049;-58
2023/05/29 01:19:03;;;;;;;14.25;6.55;;;16.90;99.20;;;;;;5005201;28;20041;-58
2023/05/29 01:21:50;;;;;;;12.10;6.53;;;16.90;99.40;;;;;;5025152;28;20100;-58
2023/05/29 01:24:57;;;;;;;15.85;7.13;;;16.80;99.50;;;;;;5022456;28;20049;-58
2023/05/29 01:27:25;;;;;;;13.88;5.93;;;16.80;99.80;;;;;;5021618;28;20498;-58
2023/05/29 01:29:54;;;;;;;14.40;7.88;;;16.80;99.90;;;;;;5024760;28;20560;-58
2023/05/29 01:32:21;;;;;;;14.85;6.63;;;16.80;99.90;;;;;;5025178;28;20046;-58
2023/05/29 01:34:47;;;;;;;14.52;6.28;;;16.80;99.90;;;;;;5022003;28;20100;-57
2023/05/29 01:37:13;;;;;;;12.25;6.70;;;16.80;99.90;;;;;;5022205;28;20092;-57
2023/05/29 01:39:39;;;;;;;13.77;6.57;;;16.70;99.90;;;;;;5024486;28;20510;-57
2023/05/29 01:42:06;;;;;;;17.63;5.38;;;16.70;99.90;;;;;;5022209;28;20037;-57
2023/05/29 01:44:32;;;;;;;11.35;5.80;;;16.60;99.90;;;;;;5024612;28;20504;-58
2023/05/29 01:46:58;;;;;;;12.93;7.20;;;16.60;99.90;;;;;;5021120;28;20054;-57
2023/05/29 01:49:25;;;;;;;14.70;6.78;;;16.50;99.90;;;;;;5024525;28;20119;-58
2023/05/29 01:51:51;;;;;;;17.88;6.40;;;16.50;99.90;;;;;;5019903;28;20040;-58
2023/05/29 01:54:17;;;;;;;12.95;6.80;;;16.50;99.90;;;;;;5023636;28;20104;-58
2023/05/29 01:56:44;;;;;;;11.45;6.10;;;16.50;99.90;;;;;;5037313;28;20467;-58
2023/05/29 01:59:12;;;;;;;15.20;6.45;;;16.50;99.90;;;;;;5018787;28;20425;-58
2023/05/29 02:01:39;;;;;;;13.48;6.03;;;16.50;99.90;;;;;;5020189;28;20049;-58
2023/05/29 02:04:05;;;;;;;14.70;6.30;;;16.40;99.90;;;;;;5023533;28;20050;-58
2023/05/29 02:06:33;;;;;;;12.30;5.68;;;16.40;99.90;;;;;;5024835;28;20087;-58
2023/05/29 02:08:58;;;;;;;10.25;6.55;;;16.40;99.90;;;;;;5024405;28;20065;-58
2023/05/29 02:11:25;;;;;;;11.65;5.60;;;16.40;99.90;;;;;;5021816;28;20045;-58
2023/05/29 02:13:52;;;;;;;15.90;6.60;;;16.30;99.90;;;;;;5053723;28;20096;-58
2023/05/29 02:16:20;;;;;;;12.38;6.60;;;16.30;99.90;;;;;;5019337;28;20076;-58
2023/05/29 02:18:46;;;;;;;8.93;6.22;;;16.30;99.90;;;;;;5021545;28;20051;-58
2023/05/29 02:21:12;;;;;;;13.60;5.78;;;16.30;99.90;;;;;;5021013;28;20044;-57
2023/05/29 02:23:37;;;;;;;14.32;6.13;;;16.30;99.90;;;;;;5020818;28;20045;-58
2023/05/29 02:26:03;;;;;;;15.07;6.22;;;16.20;99.90;;;;;;5024206;28;20060;-57
2023/05/29 02:28:29;;;;;;;13.98;6.38;;;16.20;99.90;;;;;;5023961;28;20096;-58
2023/05/29 02:30:55;;;;;;;15.98;7.60;;;16.20;99.90;;;;;;5023638;28;20041;-57
2023/05/29 02:33:20;;;;;;;14.35;6.60;;;16.20;99.90;;;;;;5019873;28;20072;-58
2023/05/29 02:35:46;;;;;;;11.93;4.40;;;16.10;99.90;;;;;;5023691;28;20130;-57
2023/05/29 02:38:12;;;;;;;14.05;5.82;;;16.10;99.90;;;;;;5022901;28;20069;-58
2023/05/29 02:40:38;;;;;;;12.68;5.03;;;16.00;99.90;;;;;;5024777;28;20034;-57
2023/05/29 02:43:05;;;;;;;11.57;6.05;;;16.00;99.90;;;;;;5024072;28;20050;-57
2023/05/29 02:45:31;;;;;;;8.52;4.82;;;16.00;99.90;;;;;;5019740;28;20093;-57
2023/05/29 02:47:56;;;;;;;11.07;5.82;;;16.00;99.90;;;;;;5022403;28;20042;-57
2023/05/29 02:50:22;;;;;;;13.40;5.55;;;15.90;99.90;;;;;;5014448;28;20128;-58
2023/05/29 02:52:48;;;;;;;13.48;5.72;;;15.90;99.90;;;;;;5021850;28;20037;-58
2023/05/29 02:55:14;;;;;;;20.52;6.80;;;15.90;99.90;;;;;;5020194;28;20061;-58
2023/05/29 02:57:40;;;;;;;10.05;5.07;;;15.80;99.90;;;;;;5021444;28;20065;-57
2023/05/29 03:00:07;;;;;;;15.82;6.07;;;15.80;99.90;;;;;;5022800;28;20498;-57
2023/05/29 03:02:34;;;;;;;15.07;7.32;;;15.70;99.90;;;;;;5019955;28;20469;-58
2023/05/29 03:05:00;;;;;;;14.68;6.10;;;15.70;99.90;;;;;;5024097;28;20050;-58
2023/05/29 03:07:26;;;;;;;11.90;4.45;;;15.70;99.90;;;;;;5020597;28;20041;-57
2023/05/29 03:09:52;;;;;;;12.60;4.88;;;15.70;99.90;;;;;;5015086;28;20539;-59
2023/05/29 03:12:18;;;;;;;12.93;4.90;;;15.70;99.90;;;;;;5022623;28;20042;-60
2023/05/29 03:14:44;;;;;;;9.63;6.38;;;15.60;99.90;;;;;;5022138;28;20513;-58
2023/05/29 03:17:10;;;;;;;15.80;7.18;;;15.60;99.90;;;;;;5020556;28;20146;-58
2023/05/29 03:19:37;;;;;;;16.40;6.03;;;15.60;99.90;;;;;;5023900;28;20046;-58
2023/05/29 03:22:03;;;;;;;17.23;6.25;;;15.60;99.90;;;;;;5020800;28;20092;-58
2023/05/29 03:24:29;;;;;;;16.05;5.97;;;15.60;99.90;;;;;;5022482;28;20096;-58
2023/05/29 03:26:55;;;;;;;12.60;6.80;;;15.50;99.90;;;;;;5022171;28;20500;-58
2023/05/29 03:29:21;;;;;;;19.30;5.53;;;15.50;99.90;;;;;;5023966;28;20049;-57
2023/05/29 03:31:47;;;;;;;12.00;5.45;;;15.50;99.90;;;;;;5022987;28;20529;-58
2023/05/29 03:34:13;;;;;;;11.88;6.10;;;15.50;99.90;;;;;;5020784;28;20128;-57
2023/05/29 03:36:39;;;;;;;17.70;8.38;;;15.40;99.90;;;;;;5021511;28;20046;-58
2023/05/29 03:39:06;;;;;;;13.13;6.28;;;15.40;99.90;;;;;;5022603;28;20049;-57
2023/05/29 03:41:31;;;;;;;14.13;6.55;;;15.40;99.90;;;;;;5022653;28;20132;-59
2023/05/29 03:43:57;;;;;;;13.60;7.50;;;15.30;99.90;;;;;;5022391;28;20046;-57
2023/05/29 03:46:23;;;;;;;17.33;7.18;;;15.30;99.90;;;;;;5020601;28;20077;-57
2023/05/29 03:48:49;;;;;;;9.90;4.28;;;15.30;99.90;;;;;;5022453;28;20096;-57
2023/05/29 03:51:15;;;;;;;7.68;4.38;;;15.20;99.90;;;;;;5021653;28;20129;-58
2023/05/29 03:53:40;;;;;;;13.00;5.38;;;15.20;99.90;;;;;;5017923;28;20073;-57
2023/05/29 03:56:06;;;;;;;14.32;6.28;;;15.20;99.90;;;;;;5022213;28;20049;-58
2023/05/29 03:58:32;;;;;;;11.50;6.22;;;15.20;99.90;;;;;;5006605;28;20100;-57
2023/05/29 04:00:58;;;;;;;14.18;6.65;;;15.20;99.90;;;;;;5019282;28;20048;-57
2023/05/29 04:03:23;;;;;;;9.40;5.25;;;15.20;99.90;;;;;;5022117;28;20114;-58
2023/05/29 04:05:49;;;;;;;12.93;6.55;;;15.10;99.90;;;;;;5022297;28;20047;-57
2023/05/29 04:08:15;;;;;;;12.65;6.05;;;15.10;99.90;;;;;;5021223;28;20038;-57
2023/05/29 04:10:41;;;;;;;8.27;4.10;;;15.10;99.90;;;;;;5025069;28;20034;-57
2023/05/29 04:13:07;;;;;;;16.65;7.10;;;15.10;99.90;;;;;;5024555;28;20095;-57
2023/05/29 04:15:33;;;;;;;17.35;7.13;;;15.10;99.90;;;;;;5024052;28;20495;-57
2023/05/29 04:17:59;;;;;;;16.48;6.70;;;15.10;99.90;;;;;;5023703;28;20034;-57
2023/05/29 04:20:25;;;;;;;10.63;4.65;;;15.10;99.90;;;;;;5023148;28;20205;-58
2023/05/29 04:22:51;;;;;;;17.13;6.93;;;15.10;99.90;;;;;;5024430;28;20654;-57
2023/05/29 04:25:17;;;;;;;10.15;5.72;;;15.10;99.90;;;;;;5024480;28;20041;-58
2023/05/29 04:27:48;;;;;;;20.35;7.28;;;15.10;99.90;;;;;;5026072;28;20074;-58
2023/05/29 04:30:15;;;;;;;13.23;5.97;;;15.00;99.90;;;;;;5023436;28;20649;-58
2023/05/29 04:32:41;;;;;;;19.15;6.95;;;15.00;99.90;;;;;;5024152;28;20528;-58
2023/05/29 04:35:07;;;;;;;15.68;7.40;;;15.10;99.90;;;;;;5025470;28;20045;-58
2023/05/29 04:37:37;;;;;;;20.38;6.88;;;15.10;99.90;;;;;;5024692;28;20053;-58
2023/05/29 04:40:10;;;;;;;18.40;7.75;;;15.00;99.90;;;;;;5021051;28;20079;-57
2023/05/29 04:42:37;;;;;;;9.15;4.57;;;15.00;99.90;;;;;;5022811;28;20046;-57
2023/05/29 04:45:06;;;;;;;15.80;5.63;;;15.10;99.90;;;;;;5022162;28;20603;-58
2023/05/29 04:47:36;;;;;;;19.83;6.30;;;15.00;99.90;;;;;;5017483;28;20034;-57
2023/05/29 04:50:02;;;;;;;11.95;5.78;;;15.00;99.90;;;;;;5019301;28;20072;-57
2023/05/29 04:52:28;;;;;;;19.00;6.53;;;15.00;99.90;;;;;;5021707;28;20050;-57
2023/05/29 04:54:57;;;;;;;14.32;5.45;;;15.00;99.90;;;;;;5024781;28;20520;-58
2023/05/29 04:57:22;;;;;;;12.13;5.90;;;15.00;99.90;;;;;;5022960;28;20631;-57
2023/05/29 04:59:48;;;;;;;13.30;6.53;;;14.90;99.90;;;;;;5023112;28;21661;-57
2023/05/29 05:02:14;;;;;;;21.25;7.85;;;14.90;99.90;;;;;;5019052;28;20050;-57
2023/05/29 05:04:40;;;;;;;12.32;6.28;;;14.90;99.90;;;;;;5022942;28;20046;-58
2023/05/29 05:07:06;;;;;;;11.93;5.95;;;14.90;99.90;;;;;;5021723;28;20382;-57
2023/05/29 05:09:31;;;;;;;24.30;8.13;;;14.90;99.90;;;;;;5022872;28;20123;-57
2023/05/29 05:11:57;;;;;;;14.98;6.03;;;14.90;99.90;;;;;;5025447;28;20603;-57
2023/05/29 05:14:23;;;;;;;13.18;5.05;;;14.90;99.90;;;;;;5023815;28;20042;-58
2023/05/29 05:16:49;;;;;;;15.82;7.57;;;14.90;99.90;;;;;;5026027;28;20042;-58
2023/05/29 05:19:15;;;;;;;15.50;8.05;;;15.00;99.90;;;;;;5054892;28;20042;-58
2023/05/29 05:21:40;;;;;;;13.15;7.43;;;15.00;99.90;;;;;;5024761;28;20049;-58
2023/05/29 05:24:06;;;;;;;14.55;6.97;;;15.00;99.90;;;;;;5023259;28;20045;-58
2023/05/29 05:26:32;;;;;;;17.50;7.35;;;15.00;99.90;;;;;;5021456;28;20038;-57
2023/05/29 05:28:57;;;;;;;9.45;5.78;;;15.00;99.90;;;;;;5024550;28;20041;-57
2023/05/29 05:31:24;;;;;;;14.30;7.68;;;15.00;99.90;;;;;;5026618;28;20068;-57
2023/05/29 05:33:50;;;;;;;17.05;7.57;;;14.90;99.90;;;;;;5024765;28;20116;-57
2023/05/29 05:36:16;;;;;;;16.02;5.25;;;14.90;99.90;;;;;;5051785;28;20045;-57
2023/05/29 05:38:41;;;;;;;17.75;6.75;;;14.90;99.90;;;;;;5024660;28;20084;-57
2023/05/29 05:41:07;;;;;;;18.27;7.28;;;15.00;99.90;;;;;;5024012;28;20148;-57
2023/05/29 05:43:33;;;;;;;15.93;7.90;;;15.00;99.90;;;;;;5024750;28;20622;-58
2023/05/29 05:45:58;;;;;;;15.25;7.03;;;15.10;99.90;;;;;;5025072;28;20049;-58
2023/05/29 05:48:24;;;;;;;16.42;8.82;;;15.00;99.90;;;;;;5025679;28;20037;-57
2023/05/29 05:50:50;;;;;;;16.45;6.15;;;15.00;99.90;;;;;;5024242;28;20305;-57
2023/05/29 05:53:16;;;;;;;11.73;6.63;;;15.00;99.90;;;;;;5025872;28;20041;-57
2023/05/29 05:55:43;;;;;;;13.18;6.90;;;15.00;99.90;;;;;;5024414;28;20582;-57
2023/05/29 05:58:08;;;;;;;17.75;7.88;;;15.00;99.90;;;;;;5026280;28;20053;-57
2023/05/29 06:00:34;;;;;;;13.50;6.28;;;15.00;99.90;;;;;;5019279;28;20551;-57
2023/05/29 06:03:02;;;;;;;12.40;5.35;;;15.00;99.90;;;;;;5024123;28;20051;-57
2023/05/29 06:05:30;;;;;;;18.50;8.45;;;15.10;99.90;;;;;;5023926;28;20041;-58
2023/05/29 06:07:56;;;;;;;18.08;9.27;;;15.10;99.90;;;;;;5024815;28;20420;-57
2023/05/29 06:10:21;;;;;;;15.88;7.40;;;15.10;99.90;;;;;;5023544;28;20049;-57
2023/05/29 06:12:47;;;;;;;15.98;8.40;;;15.10;99.90;;;;;;5023169;28;20157;-57
2023/05/29 06:15:13;;;;;;;18.77;8.65;;;15.20;99.90;;;;;;5023716;28;20056;-57
2023/05/29 06:17:39;;;;;;;19.55;10.10;;;15.20;99.90;;;;;;5055192;28;20088;-57
2023/05/29 06:20:11;;;;;;;14.63;7.70;;;15.20;99.90;;;;;;5022608;28;20045;-57
2023/05/29 06:22:37;;;;;;;12.48;4.95;;;15.20;99.90;;;;;;5038160;28;20049;-57
2023/05/29 06:25:03;;;;;;;17.10;8.25;;;15.20;99.90;;;;;;5024631;28;20535;-57
2023/05/29 06:27:29;;;;;;;18.05;9.18;;;15.30;99.90;;;;;;5008011;28;20049;-57
2023/05/29 06:29:55;;;;;;;9.32;5.22;;;15.30;99.90;;;;;;5020848;28;20057;-58
2023/05/29 06:32:21;;;;;;;22.00;8.85;;;15.30;99.90;;;;;;5018902;28;20065;-57
2023/05/29 06:34:47;;;;;;;21.50;9.35;;;15.40;99.90;;;;;;5021482;28;20144;-57
2023/05/29 06:37:13;;;;;;;15.70;5.93;;;15.40;99.90;;;;;;5023292;28;20045;-57
2023/05/29 06:39:41;;;;;;;16.63;8.23;;;15.40;99.90;;;;;;5024707;28;20049;-58
2023/05/29 06:42:08;;;;;;;16.67;5.97;;;15.40;99.90;;;;;;5020084;28;20042;-58
2023/05/29 06:44:34;;;;;;;11.32;5.90;;;15.50;99.90;;;;;;5024963;28;20053;-57
2023/05/29 06:47:00;;;;;;;12.07;6.55;;;15.50;99.90;;;;;;5019688;28;20776;-57
2023/05/29 06:49:25;;;;;;;16.60;6.80;;;15.50;99.90;;;;;;5022675;28;20611;-57
2023/05/29 06:51:51;;;;;;;20.90;8.85;;;15.50;99.90;;;;;;5023451;28;20464;-57
2023/05/29 06:54:17;;;;;;;15.40;8.35;;;15.60;99.90;;;;;;5023717;28;20414;-57
2023/05/29 06:56:43;;;;;;;16.15;8.98;;;15.60;99.90;;;;;;5023939;28;20048;-58
2023/05/29 06:59:09;;;;;;;16.13;8.70;;;15.60;99.90;;;;;;5022683;28;20845;-58
2023/05/29 07:01:35;;;;;;;13.48;8.30;;;15.60;99.90;;;;;;5023351;28;20046;-58
2023/05/29 07:04:01;;;;;;;20.15;8.82;;;15.70;99.90;;;;;;5021576;28;20042;-58
2023/05/29 07:06:26;;;;;;;14.27;7.18;;;15.70;99.90;;;;;;5021407;28;20071;-57
2023/05/29 07:08:52;;;;;;;9.32;5.47;;;15.70;99.90;;;;;;5023965;28;20117;-58
2023/05/29 07:11:18;;;;;;;16.00;7.40;;;15.80;99.90;;;;;;5023775;28;20088;-58
2023/05/29 07:13:43;;;;;;;19.85;7.82;;;15.70;99.90;;;;;;5023160;28;20471;-58
2023/05/29 07:16:09;;;;;;;13.88;5.75;;;15.80;99.90;;;;;;5023248;28;20077;-57
2023/05/29 07:18:35;;;;;;;18.92;7.38;;;15.80;99.90;;;;;;5022182;28;20129;-57
2023/05/29 07:21:01;;;;;;;15.75;7.45;;;15.90;99.90;;;;;;5019568;28;20614;-57
2023/05/29 07:23:27;;;;;;;12.20;6.32;;;15.90;99.90;;;;;;5021773;28;20077;-57
2023/05/29 07:25:52;;;;;;;21.40;9.55;;;16.00;99.90;;;;;;5018288;28;20049;-58
2023/05/29 07:28:18;;;;;;;17.88;7.80;;;16.00;99.90;;;;;;5023514;28;20050;-57
2023/05/29 07:30:44;;;;;;;16.50;7.03;;;16.00;99.90;;;;;;5021425;28;20045;-58
2023/05/29 07:33:09;;;;;;;9.77;5.05;;;16.10;99.90;;;;;;5022068;28;20061;-58
2023/05/29 07:35:35;;;;;;;16.15;7.28;;;16.10;99.90;;;;;;5021782;28;20544;-58
2023/05/29 07:38:01;;;;;;;7.70;5.57;;;16.10;99.90;;;;;;5021343;28;20049;-58
2023/05/29 07:40:27;;;;;;;18.80;8.00;;;16.20;99.90;;;;;;5019173;28;20135;-57
2023/05/29 07:42:52;;;;;;;20.92;8.95;;;16.20;99.90;;;;;;5025774;28;20145;-58
2023/05/29 07:45:18;;;;;;;14.02;9.13;;;16.20;99.90;;;;;;5026876;28;20045;-58
2023/05/29 07:47:44;;;;;;;15.50;7.55;;;16.30;99.90;;;;;;5024650;28;20124;-57
2023/05/29 07:50:12;;;;;;;18.08;6.45;;;16.00;99.90;;;;;;5026474;28;20053;-57
2023/05/29 07:52:38;;;;;;;15.13;7.90;;;16.30;99.90;;;;;;5024742;28;20077;-57
2023/05/29 07:55:04;;;;;;;18.15;8.05;;;16.30;99.90;;;;;;5027395;28;20041;-57
2023/05/29 07:57:30;;;;;;;15.15;7.22;;;16.30;99.90;;;;;;5023847;28;20692;-58
2023/05/29 07:59:56;;;;;;;17.10;8.45;;;16.30;99.90;;;;;;5021493;28;20077;-57
2023/05/29 08:02:22;;;;;;;13.20;6.35;;;16.40;99.90;;;;;;5024752;28;20125;-57
2023/05/29 08:04:47;;;;;;;16.00;9.02;;;16.40;99.90;;;;;;5024873;28;20041;-58
2023/05/29 08:07:13;;;;;;;13.32;5.22;;;16.40;99.90;;;;;;5023856;28;20045;-57
2023/05/29 08:09:39;;;;;;;12.90;7.10;;;16.50;99.90;;;;;;5025769;28;20590;-59
2023/05/29 08:12:06;;;;;;;18.88;8.98;;;16.40;99.90;;;;;;5024423;28;20084;-57
2023/05/29 08:14:31;;;;;;;14.32;9.07;;;16.50;99.90;;;;;;5056046;28;20053;-57
2023/05/29 08:16:58;;;;;;;11.10;5.47;;;16.60;99.90;;;;;;5023023;28;20435;-57
2023/05/29 08:19:24;;;;;;;16.88;7.97;;;16.60;99.90;;;;;;5023083;28;20109;-58
2023/05/29 08:21:50;;;;;;;16.23;7.63;;;16.60;99.90;;;;;;5024795;28;20124;-57
2023/05/29 08:24:15;;;;;;;10.45;6.30;;;16.70;99.90;;;;;;5025755;28;20049;-57
2023/05/29 08:26:43;;;;;;;17.05;7.57;;;16.70;99.90;;;;;;5021575;28;20429;-57
2023/05/29 08:29:09;;;;;;;13.88;5.53;;;16.70;99.90;;;;;;5023072;28;20037;-58
2023/05/29 08:31:35;;;;;;;20.13;8.77;;;16.80;99.90;;;;;;5024429;28;20041;-58
2023/05/29 08:34:01;;;;;;;13.20;6.78;;;16.70;99.90;;;;;;5024223;28;20038;-57
2023/05/29 08:36:27;;;;;;;13.05;7.43;;;16.80;99.90;;;;;;5024592;28;20042;-58
2023/05/29 08:38:53;;;;;;;12.75;7.88;;;16.90;99.90;;;;;;5024806;28;20042;-57
2023/05/29 08:41:32;;;;;;;16.05;8.57;;;17.00;99.90;;;;;;5019455;28;20038;-57
2023/05/29 08:44:01;;;;;;;14.68;7.45;;;17.00;99.90;;;;;;5025727;28;20093;-57
2023/05/29 08:46:28;;;;;;;16.05;7.53;;;17.00;99.90;;;;;;5019650;28;20053;-58
2023/05/29 08:48:57;;;;;;;17.80;8.15;;;17.10;99.90;;;;;;5025806;28;20048;-58
2023/05/29 08:51:31;;;;;;;10.30;6.03;;;17.10;99.90;;;;;;5021587;28;20041;-57
2023/05/29 08:53:57;;;;;;;14.13;6.68;;;17.10;99.90;;;;;;5021349;28;20042;-57
2023/05/29 08:56:23;;;;;;;14.23;7.18;;;17.20;99.90;;;;;;5023275;28;20050;-58
2023/05/29 08:58:50;;;;;;;10.90;5.30;;;17.20;99.90;;;;;;5022547;28;20041;-57
2023/05/29 09:01:17;;;;;;;10.82;5.90;;;17.30;99.90;;;;;;5021007;28;20096;-57
2023/05/29 09:03:43;;;;;;;11.02;7.28;;;17.10;99.90;;;;;;5023900;28;20591;-57
2023/05/29 09:06:09;;;;;;;10.85;6.38;;;17.30;99.90;;;;;;5020527;28;20201;-58
2023/05/29 09:08:35;;;;;;;13.95;7.78;;;17.30;99.90;;;;;;5021307;28;20124;-57
2023/05/29 09:11:01;;;;;;;11.85;6.70;;;17.40;99.90;;;;;;5023182;28;20041;-57
2023/05/29 09:13:28;;;;;;;12.98;6.53;;;17.50;99.90;;;;;;5026439;28;20471;-57
2023/05/29 09:15:58;;;;;;;9.77;5.95;;;17.50;99.90;;;;;;5024041;28;20045;-57
2023/05/29 09:18:28;;;;;;;20.70;7.45;;;17.50;99.90;;;;;;5023126;28;20045;-58
2023/05/29 09:20:53;;;;;;;22.65;8.35;;;17.60;99.90;;;;;;5023614;28;20553;-58
2023/05/29 09:23:19;;;;;;;9.43;7.00;;;17.70;99.90;;;;;;5026569;28;20052;-58
2023/05/29 09:25:52;;;;;;;13.18;6.88;;;17.70;99.90;;;;;;5024601;28;20479;-58
2023/05/29 09:28:18;;;;;;;15.60;7.40;;;17.70;99.90;;;;;;5025011;28;20046;-58
2023/05/29 09:30:48;;;;;;;25.15;8.65;;;17.80;99.90;;;;;;5025028;28;20046;-58
2023/05/29 09:33:15;;;;;;;14.88;8.00;;;17.90;99.90;;;;;;5024932;28;20487;-57
2023/05/29 09:35:43;;;;;;;12.38;5.40;;;17.90;99.90;;;;;;5027205;28;20046;-57
2023/05/29 09:38:16;;;;;;;8.60;4.18;;;17.90;99.90;;;;;;5025204;28;20053;-57
2023/05/29 09:40:45;;;;;;;12.23;6.63;;;17.90;99.90;;;;;;5025533;28;20093;-59
2023/05/29 09:43:13;;;;;;;9.77;6.18;;;17.90;99.90;;;;;;5025144;28;20483;-57
2023/05/29 09:45:44;;;;;;;13.90;7.55;;;18.00;99.90;;;;;;5023026;28;20072;-58
2023/05/29 09:48:28;;;;;;;11.07;6.85;;;18.00;99.90;;;;;;5025300;28;20038;-57
2023/05/29 09:50:57;;;;;;;11.70;7.72;;;18.10;99.90;;;;;;5025420;28;20042;-58
2023/05/29 09:53:24;;;;;;;12.52;6.60;;;18.10;99.90;;;;;;5025673;28;20072;-57
2023/05/29 09:55:55;;;;;;;17.58;6.18;;;18.10;99.90;;;;;;5023514;28;20622;-58
2023/05/29 09:58:22;;;;;;;12.25;5.40;;;18.10;99.90;;;;;;5025091;28;20240;-57
2023/05/29 10:00:49;;;;;;;9.25;5.78;;;18.20;99.90;;;;;;5022380;28;20099;-57
2023/05/29 10:03:15;;;;;;;14.70;7.35;;;18.20;99.90;;;;;;5025338;28;20049;-57
2023/05/29 10:05:42;;;;;;;13.88;7.85;;;18.30;99.90;;;;;;5022586;28;20080;-57
2023/05/29 10:08:13;;;;;;;13.57;6.90;;;18.30;99.90;;;;;;5022585;28;20046;-57
2023/05/29 10:10:43;;;;;;;8.45;5.50;;;18.40;99.90;;;;;;5017713;28;21002;-57
2023/05/29 10:13:12;;;;;;;16.42;6.50;;;18.40;99.90;;;;;;5024731;28;20057;-58
2023/05/29 10:15:40;;;;;;;8.70;4.80;;;18.50;99.90;;;;;;5022755;28;20060;-57
2023/05/29 10:18:13;;;;;;;15.32;6.45;;;18.50;99.90;;;;;;5023935;28;20045;-57
2023/05/29 10:20:43;;;;;;;12.18;6.10;;;18.60;99.90;;;;;;5024737;28;20066;-58
2023/05/29 10:23:10;;;;;;;13.20;6.15;;;18.60;99.90;;;;;;5025693;28;20089;-58
2023/05/29 10:25:36;;;;;;;19.35;7.30;;;18.70;99.90;;;;;;5023647;28;20046;-57
2023/05/29 10:28:02;;;;;;;16.02;5.57;;;18.70;99.90;;;;;;5024649;28;20109;-57
2023/05/29 10:30:49;;;;;;;9.68;6.13;;;18.80;99.90;;;;;;5022323;28;20045;-57
2023/05/29 10:33:41;;;;;;;7.57;5.15;;;18.80;99.90;;;;;;5023952;28;20531;-57
2023/05/29 10:36:30;;;;;;;15.20;6.93;;;18.90;99.90;;;;;;5024319;28;20049;-58
2023/05/29 10:38:56;;;;;;;12.05;5.88;;;18.90;99.90;;;;;;5025042;27;20213;-57
2023/05/29 10:41:27;;;;;;;15.52;6.05;;;18.90;99.90;;;;;;5024256;28;20493;-57
2023/05/29 10:43:55;;;;;;;8.90;6.53;;;19.00;99.90;;;;;;5023390;28;20041;-58
2023/05/29 10:46:21;;;;;;;12.13;7.38;;;19.00;99.90;;;;;;5022759;28;20084;-57
2023/05/29 10:48:49;;;;;;;15.25;6.10;;;19.00;99.90;;;;;;5024352;28;20041;-57
2023/05/29 10:51:27;;;;;;;10.65;6.40;;;19.10;99.90;;;;;;5022303;28;20038;-57
2023/05/29 10:53:53;;;;;;;14.00;7.55;;;19.20;99.90;;;;;;5024630;28;20030;-57
2023/05/29 10:56:24;;;;;;;15.75;6.78;;;19.30;99.90;;;;;;5023289;28;20045;-57
2023/05/29 10:58:54;;;;;;;7.27;4.87;;;19.30;99.90;;;;;;5023482;28;20097;-57
2023/05/29 11:01:27;;;;;;;7.18;4.13;;;19.30;99.90;;;;;;5024759;28;20042;-57
2023/05/29 11:04:13;;;;;;;25.05;7.80;;;19.30;99.90;;;;;;5024146;28;20041;-58
2023/05/29 11:06:38;;;;;;;13.18;6.05;;;19.30;99.90;;;;;;5024143;28;21072;-58
2023/05/29 11:09:08;;;;;;;12.15;7.60;;;19.30;99.90;;;;;;5022513;28;20042;-57
2023/05/29 11:11:36;;;;;;;15.32;7.40;;;19.40;99.90;;;;;;5023415;28;20147;-57
2023/05/29 11:14:06;;;;;;;11.63;5.63;;;19.50;99.90;;;;;;5024869;28;20076;-58
2023/05/29 11:16:32;;;;;;;9.75;6.63;;;19.50;99.90;;;;;;5019900;28;20049;-59
2023/05/29 11:19:03;;;;;;;12.00;4.95;;;19.60;99.90;;;;;;5025814;28;20042;-58
2023/05/29 11:21:38;;;;;;;11.25;6.65;;;19.60;99.90;;;;;;5057385;28;20092;-57
2023/05/29 11:24:07;;;;;;;11.45;6.78;;;19.70;99.90;;;;;;5027895;28;20560;-58
2023/05/29 11:26:34;;;;;;;9.40;5.28;;;19.70;99.90;;;;;;5026335;28;20057;-57
2023/05/29 11:29:06;;;;;;;9.48;6.78;;;19.70;99.90;;;;;;5027944;28;20704;-57
2023/05/29 11:31:34;;;;;;;9.05;4.70;;;19.80;99.90;;;;;;5027931;28;20183;-57
2023/05/29 11:34:04;;;;;;;7.85;4.80;;;19.80;99.90;;;;;;5028668;28;20046;-57
2023/05/29 11:36:32;;;;;;;12.35;6.78;;;19.90;99.90;;;;;;5027678;28;20045;-57
2023/05/29 11:38:58;;;;;;;9.20;5.32;;;19.90;99.90;;;;;;5028096;28;20532;-58
2023/05/29 11:41:25;;;;;;;11.80;7.15;;;20.00;99.90;;;;;;5016175;28;20448;-57
2023/05/29 11:44:02;;;;;;;9.73;6.20;;;20.00;99.90;;;;;;5023784;28;20077;-58
2023/05/29 11:46:30;;;;;;;13.82;7.03;;;20.10;99.90;;;;;;5024919;28;20128;-58
2023/05/29 11:48:56;;;;;;;9.20;5.72;;;20.10;99.90;;;;;;5027731;28;20034;-58
2023/05/29 11:51:22;;;;;;;13.55;6.50;;;20.20;99.90;;;;;;5026347;28;20042;-57
2023/05/29 11:53:49;;;;;;;8.48;6.35;;;20.20;99.90;;;;;;5023650;28;20404;-58
2023/05/29 11:56:15;;;;;;;12.70;5.93;;;20.30;99.90;;;;;;5024637;28;20042;-58
2023/05/29 11:58:41;;;;;;;9.13;6.30;;;20.30;99.90;;;;;;5026073;28;20069;-57
2023/05/29 12:01:08;;;;;;;8.60;5.45;;;20.30;99.90;;;;;;5026310;28;20054;-57
2023/05/29 12:03:43;;;;;;;12.63;6.90;;;20.30;99.90;;;;;;5022300;28;20042;-58
2023/05/29 12:06:12;;;;;;;11.00;5.72;;;20.40;99.90;;;;;;5026582;28;20052;-57
2023/05/29 12:08:39;;;;;;;13.30;7.03;;;20.40;99.90;;;;;;5026047;28;20599;-59
2023/05/29 12:11:05;;;;;;;11.70;6.07;;;20.50;99.90;;;;;;5025885;28;20092;-58
2023/05/29 12:13:31;;;;;;;7.88;5.90;;;20.50;99.90;;;;;;5024884;28;20078;-57
2023/05/29 12:16:02;;;;;;;10.65;6.05;;;20.50;99.90;;;;;;5022326;28;20169;-58
2023/05/29 12:18:29;;;;;;;10.95;5.90;;;20.60;99.90;;;;;;5024549;28;20052;-58
2023/05/29 12:21:02;;;;;;;9.90;5.68;;;20.60;99.90;;;;;;5026188;28;20053;-57
2023/05/29 12:23:29;;;;;;;4.93;3.92;;;20.70;99.90;;;;;;5026111;28;20073;-57
2023/05/29 12:25:56;;;;;;;10.98;5.45;;;20.70;99.90;;;;;;5026389;28;20582;-58
2023/05/29 12:28:22;;;;;;;7.70;4.43;;;20.70;99.90;;;;;;5020675;28;20047;-57
2023/05/29 12:30:49;;;;;;;8.57;6.30;;;20.70;99.90;;;;;;5024096;28;20176;-57
2023/05/29 12:33:32;;;;;;;10.02;6.30;;;20.80;99.90;;;;;;5023545;28;20581;-57
2023/05/29 12:36:06;;;;;;;13.55;7.55;;;20.80;99.90;;;;;;5026752;28;20049;-57
2023/05/29 12:38:32;;;;;;;7.65;4.95;;;20.90;99.90;;;;;;5024254;28;20041;-58